createdAt,value
2018-12-25T09:52:21.021Z,7.33
2018-12-25T09:54:51.213Z,6.50
2018-12-25T09:57:21.169Z,8.83
2018-12-25T09:59:53.907Z,9.07
2018-12-25T10:02:25.986Z,11.17
2018-12-25T10:05:07.222Z,5.63
2018-12-25T10:07:39.676Z,6.30
2018-12-25T10:10:12.272Z,10.83
2018-12-25T10:13:24.747Z,15.27
2018-12-25T10:16:06.106Z,7.90
2018-12-25T10:18:51.028Z,9.73
2018-12-25T10:21:28.269Z,10.87
2018-12-25T10:27:57.687Z,8.33
2018-12-25T10:36:57.439Z,8.17
2018-12-25T10:39:34.226Z,4.60
2018-12-25T10:42:31.049Z,7.13
2018-12-25T10:45:03.920Z,8.47
2018-12-25T10:48:09.704Z,4.90
2018-12-25T10:50:41.773Z,9.23
2018-12-25T10:53:11.769Z,5.27
2018-12-25T10:55:42.001Z,7.43
2018-12-25T10:58:12.286Z,8.97
2018-12-25T11:01:10.180Z,5.47
2018-12-25T11:03:40.098Z,5.60
2018-12-25T11:06:10.061Z,6.00
2018-12-25T11:08:39.928Z,7.80
2018-12-25T11:11:12.725Z,10.57
2018-12-25T11:13:45.843Z,6.93
2018-12-25T11:16:21.741Z,15.20
2018-12-25T11:18:51.674Z,7.87
2018-12-25T11:21:25.182Z,15.97
2018-12-25T11:23:56.917Z,8.47
2018-12-25T11:26:26.882Z,8.03
2018-12-25T11:28:58.874Z,15.60
2018-12-25T11:31:35.031Z,20.00
2018-12-25T11:34:05.156Z,8.57
2018-12-25T11:36:41.674Z,15.57
2018-12-25T11:39:16.786Z,22.50
2018-12-25T11:41:48.852Z,29.97
2018-12-25T11:44:18.501Z,8.33
2018-12-25T11:47:09.264Z,12.57
2018-12-25T11:49:36.866Z,8.73
2018-12-25T11:52:28.553Z,7.70
2018-12-25T11:55:06.164Z,14.00
2018-12-25T11:57:36.066Z,15.10
2018-12-25T12:00:06.669Z,6.97
2018-12-25T12:02:36.487Z,7.73
2018-12-25T12:05:37.304Z,8.63
2018-12-25T12:08:14.695Z,7.20
2018-12-25T12:11:35.380Z,9.40
2018-12-25T12:14:04.793Z,13.47
2018-12-25T12:16:34.122Z,6.33
2018-12-25T12:19:03.448Z,8.63
2018-12-25T12:21:32.863Z,7.80
2018-12-25T12:24:02.290Z,11.57
2018-12-25T12:26:31.715Z,6.97
2018-12-25T12:29:01.066Z,9.57
2018-12-25T12:34:07.060Z,11.33
2018-12-25T12:36:38.240Z,6.57
2018-12-25T12:39:08.144Z,7.20
2018-12-25T12:41:37.916Z,5.67
2018-12-25T12:44:07.182Z,7.70
2018-12-25T12:46:36.543Z,7.37
2018-12-25T12:49:06.285Z,8.93
2018-12-25T12:51:35.680Z,9.53
2018-12-25T12:54:05.519Z,7.37
2018-12-25T12:56:34.892Z,6.13
2018-12-25T12:59:04.431Z,6.37
2018-12-25T13:01:33.720Z,8.73
2018-12-25T13:04:03.093Z,7.07
2018-12-25T13:06:32.535Z,6.20
2018-12-25T13:12:30.525Z,10.17
2018-12-25T13:15:00.222Z,6.20
2018-12-25T13:17:29.614Z,6.47
2018-12-25T13:19:59.096Z,8.03
2018-12-25T13:22:33.623Z,7.73
2018-12-25T13:25:01.512Z,6.13
2018-12-25T13:27:31.087Z,5.93
2018-12-25T13:30:00.583Z,9.10
2018-12-25T13:32:36.843Z,5.50
2018-12-25T13:35:07.336Z,5.97
2018-12-25T13:37:36.751Z,6.27
2018-12-25T13:40:06.283Z,5.47
2018-12-25T13:42:36.355Z,4.77
2018-12-25T13:45:06.223Z,6.70
2018-12-25T13:47:38.144Z,5.93
2018-12-25T13:50:26.770Z,5.33
2018-12-25T13:53:02.765Z,6.50
2018-12-25T13:55:38.974Z,5.73
2018-12-25T13:58:13.326Z,5.37
2018-12-25T14:00:43.010Z,5.50
2018-12-25T14:03:12.715Z,5.63
2018-12-25T14:05:42.417Z,6.20
2018-12-25T14:08:11.886Z,10.23
2018-12-25T14:10:45.106Z,6.37
2018-12-25T14:13:15.620Z,8.73
2018-12-25T14:15:45.118Z,7.10
2018-12-25T14:18:14.644Z,6.80
2018-12-25T14:20:44.232Z,14.33
2018-12-25T14:23:13.747Z,5.23
2018-12-25T14:25:43.208Z,6.07
2018-12-25T14:28:13.212Z,6.40
2018-12-25T14:30:42.691Z,7.57
2018-12-25T14:33:13.659Z,9.07
2018-12-25T14:35:46.309Z,10.67
2018-12-25T14:38:17.518Z,8.80
2018-12-25T14:40:47.052Z,7.47
2018-12-25T14:43:26.956Z,9.83
2018-12-25T14:46:39.454Z,9.50
2018-12-25T14:48:47.813Z,8.47
2018-12-25T14:51:18.974Z,8.53
2018-12-25T14:53:48.621Z,9.60
2018-12-25T14:56:18.163Z,10.37
2018-12-25T14:58:50.125Z,10.23
2018-12-25T15:01:19.622Z,11.67
2018-12-25T15:03:49.316Z,9.43
2018-12-25T15:06:18.841Z,10.63
2018-12-25T15:08:48.365Z,8.83
2018-12-25T15:14:30.870Z,11.50
2018-12-25T15:17:03.371Z,9.63
2018-12-25T15:19:32.917Z,8.63
2018-12-25T15:22:05.485Z,11.13
2018-12-25T15:24:35.049Z,7.13
2018-12-25T15:27:04.644Z,10.47
2018-12-25T15:29:34.091Z,10.63
2018-12-25T15:32:03.561Z,9.43
2018-12-25T15:34:33.026Z,10.33
2018-12-25T15:37:02.838Z,8.97
2018-12-25T15:39:32.483Z,9.30
2018-12-25T15:42:02.202Z,9.37
2018-12-25T15:44:31.711Z,9.50
2018-12-25T15:47:03.673Z,8.40
2018-12-25T15:49:36.339Z,8.17
2018-12-25T15:52:05.863Z,10.93
2018-12-25T15:54:35.495Z,9.03
2018-12-25T15:57:09.075Z,9.07
2018-12-25T15:59:38.462Z,10.40
2018-12-25T16:02:07.911Z,12.27
2018-12-25T16:04:37.477Z,11.00
2018-12-25T16:07:06.985Z,17.80
2018-12-25T16:09:36.401Z,10.70
2018-12-25T16:12:06.209Z,9.73
2018-12-25T16:14:41.952Z,10.80
2018-12-25T16:17:24.380Z,10.60
2018-12-25T16:19:54.265Z,9.80
2018-12-25T16:22:26.567Z,8.30
2018-12-25T16:24:56.086Z,10.27
2018-12-25T16:27:28.094Z,10.60
2018-12-25T16:29:57.394Z,9.77
2018-12-25T16:32:37.055Z,15.03
2018-12-25T16:35:12.978Z,12.93
2018-12-25T16:37:44.280Z,12.43
2018-12-25T16:40:23.059Z,11.40
2018-12-25T16:42:53.849Z,11.70
2018-12-25T16:45:26.465Z,13.57
2018-12-25T16:47:58.889Z,11.90
2018-12-25T16:50:57.057Z,10.93
2018-12-25T16:53:30.028Z,11.10
2018-12-25T16:56:02.635Z,10.00
2018-12-25T16:58:37.450Z,17.07
2018-12-25T17:01:29.004Z,14.43
2018-12-25T17:04:00.355Z,17.30
2018-12-25T17:06:33.308Z,13.10
2018-12-25T17:09:05.788Z,13.63
2018-12-25T17:11:38.088Z,13.00
2018-12-25T17:14:22.275Z,10.90
2018-12-25T17:16:51.781Z,13.40
2018-12-25T17:19:34.198Z,17.27
2018-12-25T17:22:02.373Z,17.23
2018-12-25T17:24:32.190Z,16.70
2018-12-25T17:27:15.805Z,12.43
2018-12-25T17:29:47.057Z,13.77
2018-12-25T17:32:23.685Z,14.60
2018-12-25T17:34:53.243Z,14.37
2018-12-25T17:37:31.351Z,13.43
2018-12-25T17:40:04.952Z,12.53
2018-12-25T17:42:53.672Z,12.83
2018-12-25T17:45:23.185Z,19.50
2018-12-25T17:48:56.945Z,13.07
2018-12-25T17:51:24.259Z,17.17
2018-12-25T17:54:10.477Z,13.33
2018-12-25T17:57:16.997Z,13.23
2018-12-25T18:00:02.821Z,14.63
2018-12-25T18:03:36.335Z,14.33
2018-12-25T18:06:24.782Z,16.10
2018-12-25T18:13:04.864Z,13.17
2018-12-25T18:15:32.907Z,22.93
2018-12-25T18:18:10.097Z,16.87
2018-12-25T18:20:50.070Z,17.67
2018-12-25T18:23:36.592Z,22.10
2018-12-25T18:26:09.888Z,22.03
2018-12-25T18:28:41.978Z,17.90
2018-12-25T18:31:16.096Z,14.87
2018-12-25T18:33:45.347Z,13.17
2018-12-25T18:36:17.931Z,22.80
2018-12-25T18:39:00.637Z,14.17
2018-12-25T18:41:23.554Z,24.57
2018-12-25T18:44:12.189Z,17.60
2018-12-25T18:46:41.750Z,17.30
2018-12-25T18:49:15.034Z,14.50
2018-12-25T18:51:44.550Z,27.97
2018-12-25T18:54:16.903Z,17.13
2018-12-25T18:57:07.601Z,18.80
2018-12-25T18:59:39.489Z,18.10
2018-12-25T19:02:09.781Z,17.70
2018-12-25T19:04:41.134Z,20.53
2018-12-25T19:07:10.930Z,16.20
2018-12-25T19:09:47.309Z,16.20
2018-12-25T19:12:16.859Z,14.43
2018-12-25T19:15:04.989Z,14.93
2018-12-25T19:17:37.058Z,20.23
2018-12-25T19:20:07.863Z,17.23
2018-12-25T19:22:40.135Z,18.20
2018-12-25T19:25:43.269Z,15.07
2018-12-25T19:30:07.107Z,14.87
2018-12-25T19:31:08.198Z,16.97
2018-12-25T19:33:40.663Z,16.43
2018-12-25T19:36:11.018Z,14.67
2018-12-25T19:38:41.877Z,13.73
2018-12-25T19:42:05.578Z,18.70
2018-12-25T19:44:33.847Z,14.33
2018-12-25T19:47:12.547Z,14.13
2018-12-25T19:50:01.678Z,13.77
2018-12-25T19:52:31.622Z,16.97
2018-12-25T19:55:26.217Z,14.83
2018-12-25T19:57:36.702Z,14.87
2018-12-25T20:00:10.709Z,18.07
2018-12-25T20:02:42.146Z,20.87
2018-12-25T20:05:54.192Z,15.57
2018-12-25T20:09:26.306Z,14.07
2018-12-25T20:12:33.661Z,13.93
2018-12-25T20:15:49.259Z,16.27
2018-12-25T20:18:57.462Z,15.53
2018-12-25T20:25:57.209Z,14.93
2018-12-25T20:29:03.206Z,13.47
2018-12-25T20:32:19.615Z,13.73
2018-12-25T20:35:56.769Z,15.23
2018-12-25T20:39:30.094Z,13.80
2018-12-25T20:43:10.394Z,13.10
2018-12-25T20:46:19.821Z,16.83
2018-12-25T20:49:46.002Z,12.57
2018-12-25T20:53:04.587Z,11.63
2018-12-25T20:56:06.031Z,13.10
2018-12-25T21:02:54.039Z,13.50
2018-12-25T21:06:21.889Z,12.63
2018-12-25T21:09:40.360Z,16.43
2018-12-25T21:12:54.506Z,14.83
2018-12-25T21:16:12.512Z,15.90
2018-12-25T21:19:20.469Z,16.50
2018-12-25T21:22:28.666Z,14.97
2018-12-25T21:25:35.755Z,13.60
2018-12-25T21:28:13.008Z,14.07
2018-12-25T21:30:42.569Z,14.37
2018-12-25T21:33:15.295Z,14.07
2018-12-25T21:35:45.311Z,15.97
2018-12-25T21:38:14.943Z,13.43
2018-12-25T21:40:45.939Z,15.90
2018-12-25T21:43:15.466Z,16.03
2018-12-25T21:46:42.762Z,15.83
2018-12-25T21:49:10.321Z,14.97
2018-12-25T21:51:27.998Z,14.93
2018-12-25T21:54:02.845Z,13.63
2018-12-25T22:02:23.438Z,15.67
2018-12-25T22:04:50.632Z,17.40
2018-12-25T22:07:22.432Z,15.00
2018-12-25T22:09:51.543Z,15.03
2018-12-25T22:12:40.244Z,14.37
2018-12-25T22:16:16.575Z,15.10
2018-12-25T22:18:47.655Z,15.90
2018-12-25T22:21:18.777Z,14.90
2018-12-25T22:23:48.331Z,13.57
2018-12-25T22:26:17.985Z,14.00
2018-12-25T22:28:47.665Z,13.33
2018-12-25T22:31:20.240Z,11.53
2018-12-25T22:33:51.467Z,19.37
2018-12-25T22:36:25.082Z,14.73
2018-12-25T22:39:05.012Z,13.77
2018-12-25T22:41:34.640Z,17.93
2018-12-25T22:44:04.334Z,13.53
2018-12-25T22:46:41.710Z,15.80
2018-12-25T22:52:20.540Z,14.67
2018-12-25T22:54:52.000Z,12.83
2018-12-25T22:57:28.895Z,12.97
2018-12-25T23:00:19.194Z,12.60
2018-12-25T23:02:49.031Z,10.70
2018-12-25T23:05:18.695Z,15.17
2018-12-25T23:07:52.823Z,11.83
2018-12-25T23:10:42.099Z,11.27
2018-12-25T23:13:11.643Z,11.50
2018-12-25T23:15:41.311Z,13.27
2018-12-25T23:18:20.997Z,12.10
2018-12-25T23:20:50.980Z,5.97
2018-12-25T23:23:20.416Z,12.90
2018-12-25T23:26:00.402Z,12.47
2018-12-25T23:28:21.299Z,15.20
